sensor_id;sensor_type;location;lat;lon;timestamp;temperature;humidity
46378;DHT22;32083;47.360;9.650;2024-03-23T05:01:11;9.10;93.80
46378;DHT22;32083;47.360;9.650;2024-03-23T05:03:38;9.10;93.50
46378;DHT22;32083;47.360;9.650;2024-03-23T05:06:04;9.10;93.60
46378;DHT22;32083;47.360;9.650;2024-03-23T05:08:31;9.00;93.80
46378;DHT22;32083;47.360;9.650;2024-03-23T05:10:57;9.10;93.50
46378;DHT22;32083;47.360;9.650;2024-03-23T05:13:24;9.00;93.60
46378;DHT22;32083;47.360;9.650;2024-03-23T05:15:54;9.00;93.50
46378;DHT22;32083;47.360;9.650;2024-03-23T05:18:21;9.00;93.80
46378;DHT22;32083;47.360;9.650;2024-03-23T05:20:47;9.10;93.70
46378;DHT22;32083;47.360;9.650;2024-03-23T05:23:13;9.10;94.10
46378;DHT22;32083;47.360;9.650;2024-03-23T05:25:39;9.00;93.70
46378;DHT22;32083;47.360;9.650;2024-03-23T05:28:05;9.00;93.60
46378;DHT22;32083;47.360;9.650;2024-03-23T05:30:32;9.10;93.40
46378;DHT22;32083;47.360;9.650;2024-03-23T05:32:58;9.10;93.30
46378;DHT22;32083;47.360;9.650;2024-03-23T05:35:24;9.10;93.10
46378;DHT22;32083;47.360;9.650;2024-03-23T05:37:50;9.20;93.20
46378;DHT22;32083;47.360;9.650;2024-03-23T05:40:16;9.20;92.80
46378;DHT22;32083;47.360;9.650;2024-03-23T05:42:42;9.30;92.10
46378;DHT22;32083;47.360;9.650;2024-03-23T05:45:08;9.30;92.30
46378;DHT22;32083;47.360;9.650;2024-03-23T05:47:35;9.40;91.40
46378;DHT22;32083;47.360;9.650;2024-03-23T05:50:01;9.50;92.40
46378;DHT22;32083;47.360;9.650;2024-03-23T05:52:27;9.50;92.40
46378;DHT22;32083;47.360;9.650;2024-03-23T05:54:54;9.40;92.40
46378;DHT22;32083;47.360;9.650;2024-03-23T05:57:20;9.50;92.60
46378;DHT22;32083;47.360;9.650;2024-03-23T05:59:46;9.50;92.70
46378;DHT22;32083;47.360;9.650;2024-03-23T06:02:12;9.50;92.90
46378;DHT22;32083;47.360;9.650;2024-03-23T06:04:38;9.60;92.40
46378;DHT22;32083;47.360;9.650;2024-03-23T06:07:04;9.60;93.10
46378;DHT22;32083;47.360;9.650;2024-03-23T06:09:39;9.70;92.70
46378;DHT22;32083;47.360;9.650;2024-03-23T06:12:06;9.80;91.90
46378;DHT22;32083;47.360;9.650;2024-03-23T06:14:32;9.90;91.70
46378;DHT22;32083;47.360;9.650;2024-03-23T06:16:59;9.80;92.70
46378;DHT22;32083;47.360;9.650;2024-03-23T06:19:26;9.90;91.60
46378;DHT22;32083;47.360;9.650;2024-03-23T06:21:54;9.90;93.10
46378;DHT22;32083;47.360;9.650;2024-03-23T06:24:22;9.90;92.10
46378;DHT22;32083;47.360;9.650;2024-03-23T06:26:48;9.90;92.50
46378;DHT22;32083;47.360;9.650;2024-03-23T06:29:14;9.90;92.50
46378;DHT22;32083;47.360;9.650;2024-03-23T06:31:40;9.90;92.10
46378;DHT22;32083;47.360;9.650;2024-03-23T06:34:06;10.00;92.80
46378;DHT22;32083;47.360;9.650;2024-03-23T06:36:32;10.00;92.20
46378;DHT22;32083;47.360;9.650;2024-03-23T06:38:58;10.00;92.30
46378;DHT22;32083;47.360;9.650;2024-03-23T06:41:25;10.00;92.80
46378;DHT22;32083;47.360;9.650;2024-03-23T06:43:51;10.00;92.60
46378;DHT22;32083;47.360;9.650;2024-03-23T06:46:17;10.00;91.30
46378;DHT22;32083;47.360;9.650;2024-03-23T06:48:45;10.10;91.00
46378;DHT22;32083;47.360;9.650;2024-03-23T06:51:11;10.20;91.50
46378;DHT22;32083;47.360;9.650;2024-03-23T06:53:37;10.30;91.40
46378;DHT22;32083;47.360;9.650;2024-03-23T06:56:03;10.40;91.50
46378;DHT22;32083;47.360;9.650;2024-03-23T06:58:29;10.40;92.00
46378;DHT22;32083;47.360;9.650;2024-03-23T07:00:55;10.40;90.90
46378;DHT22;32083;47.360;9.650;2024-03-23T07:03:21;10.40;92.20
46378;DHT22;32083;47.360;9.650;2024-03-23T07:05:47;10.40;92.50
46378;DHT22;32083;47.360;9.650;2024-03-23T07:08:13;10.40;92.90
46378;DHT22;32083;47.360;9.650;2024-03-23T07:10:44;10.50;92.60
46378;DHT22;32083;47.360;9.650;2024-03-23T07:13:10;10.50;92.20
46378;DHT22;32083;47.360;9.650;2024-03-23T07:15:36;10.60;92.90
46378;DHT22;32083;47.360;9.650;2024-03-23T07:18:01;10.80;93.50
46378;DHT22;32083;47.360;9.650;2024-03-23T07:20:28;11.00;94.90
46378;DHT22;32083;47.360;9.650;2024-03-23T07:22:56;11.30;96.50
46378;DHT22;32083;47.360;9.650;2024-03-23T07:25:22;11.30;96.10
46378;DHT22;32083;47.360;9.650;2024-03-23T07:27:49;11.40;97.70
46378;DHT22;32083;47.360;9.650;2024-03-23T07:30:15;11.40;98.30
46378;DHT22;32083;47.360;9.650;2024-03-23T07:32:44;11.30;98.80
46378;DHT22;32083;47.360;9.650;2024-03-23T07:35:10;11.30;99.60
46378;DHT22;32083;47.360;9.650;2024-03-23T07:37:36;11.30;99.90
46378;DHT22;32083;47.360;9.650;2024-03-23T07:40:03;11.30;99.90
46378;DHT22;32083;47.360;9.650;2024-03-23T07:42:29;11.20;99.90
46378;DHT22;32083;47.360;9.650;2024-03-23T07:44:55;11.20;99.90
46378;DHT22;32083;47.360;9.650;2024-03-23T07:47:22;11.10;99.90
46378;DHT22;32083;47.360;9.650;2024-03-23T07:49:49;11.10;99.90
46378;DHT22;32083;47.360;9.650;2024-03-23T07:52:15;11.00;99.90
46378;DHT22;32083;47.360;9.650;2024-03-23T07:54:41;10.90;99.90
46378;DHT22;32083;47.360;9.650;2024-03-23T07:57:07;10.80;99.90
46378;DHT22;32083;47.360;9.650;2024-03-23T07:59:33;10.80;99.90
46378;DHT22;32083;47.360;9.650;2024-03-23T08:02:00;10.70;99.90
46378;DHT22;32083;47.360;9.650;2024-03-23T08:04:27;10.60;99.90
46378;DHT22;32083;47.360;9.650;2024-03-23T08:06:53;10.60;99.90
46378;DHT22;32083;47.360;9.650;2024-03-23T08:09:20;10.60;99.90
46378;DHT22;32083;47.360;9.650;2024-03-23T08:11:46;10.50;99.90
46378;DHT22;32083;47.360;9.650;2024-03-23T08:14:12;10.50;99.90
46378;DHT22;32083;47.360;9.650;2024-03-23T08:16:38;10.50;99.90
46378;DHT22;32083;47.360;9.650;2024-03-23T08:19:05;10.50;99.90
46378;DHT22;32083;47.360;9.650;2024-03-23T08:21:31;10.50;99.90
46378;DHT22;32083;47.360;9.650;2024-03-23T08:23:57;10.50;99.90
46378;DHT22;32083;47.360;9.650;2024-03-23T08:26:23;10.50;99.90
46378;DHT22;32083;47.360;9.650;2024-03-23T08:28:49;10.50;99.90
46378;DHT22;32083;47.360;9.650;2024-03-23T08:31:15;10.50;99.90
46378;DHT22;32083;47.360;9.650;2024-03-23T08:33:41;10.40;99.90
46378;DHT22;32083;47.360;9.650;2024-03-23T08:36:09;10.50;99.90
46378;DHT22;32083;47.360;9.650;2024-03-23T08:38:38;10.40;99.90
46378;DHT22;32083;47.360;9.650;2024-03-23T08:41:09;10.40;99.90
46378;DHT22;32083;47.360;9.650;2024-03-23T08:43:37;10.40;99.90
46378;DHT22;32083;47.360;9.650;2024-03-23T08:48:31;10.50;99.90
46378;DHT22;32083;47.360;9.650;2024-03-23T08:51:04;10.50;99.90
46378;DHT22;32083;47.360;9.650;2024-03-23T08:53:30;10.50;99.90
46378;DHT22;32083;47.360;9.650;2024-03-23T08:55:57;10.20;99.90
46378;DHT22;32083;47.360;9.650;2024-03-23T08:58:25;10.30;99.90
46378;DHT22;32083;47.360;9.650;2024-03-23T09:00:52;10.30;99.90
46378;DHT22;32083;47.360;9.650;2024-03-23T09:03:18;10.20;99.90
46378;DHT22;32083;47.360;9.650;2024-03-23T09:05:44;10.20;99.90
46378;DHT22;32083;47.360;9.650;2024-03-23T09:08:10;10.20;99.90
46378;DHT22;32083;47.360;9.650;2024-03-23T09:10:40;10.30;99.90
46378;DHT22;32083;47.360;9.650;2024-03-23T09:13:06;10.30;99.90
46378;DHT22;32083;47.360;9.650;2024-03-23T09:15:36;10.30;99.90
46378;DHT22;32083;47.360;9.650;2024-03-23T09:18:03;10.20;99.90
46378;DHT22;32083;47.360;9.650;2024-03-23T09:20:33;10.10;99.90
46378;DHT22;32083;47.360;9.650;2024-03-23T09:22:59;10.00;99.90
46378;DHT22;32083;47.360;9.650;2024-03-23T09:25:25;9.90;99.90
46378;DHT22;32083;47.360;9.650;2024-03-23T09:27:52;9.80;99.90
46378;DHT22;32083;47.360;9.650;2024-03-23T09:30:18;9.80;99.90
46378;DHT22;32083;47.360;9.650;2024-03-23T09:32:46;9.70;99.90
46378;DHT22;32083;47.360;9.650;2024-03-23T09:35:12;9.70;99.90
46378;DHT22;32083;47.360;9.650;2024-03-23T09:37:38;9.70;99.90
46378;DHT22;32083;47.360;9.650;2024-03-23T09:40:10;9.70;99.90
46378;DHT22;32083;47.360;9.650;2024-03-23T09:42:40;9.70;99.90
46378;DHT22;32083;47.360;9.650;2024-03-23T09:45:17;9.60;99.90
46378;DHT22;32083;47.360;9.650;2024-03-23T09:47:46;9.50;99.90
46378;DHT22;32083;47.360;9.650;2024-03-23T09:50:13;9.30;99.90
46378;DHT22;32083;47.360;9.650;2024-03-23T09:52:40;9.30;99.90
46378;DHT22;32083;47.360;9.650;2024-03-23T09:55:08;9.30;99.90
46378;DHT22;32083;47.360;9.650;2024-03-23T09:57:34;9.20;99.90
46378;DHT22;32083;47.360;9.650;2024-03-23T10:00:01;9.30;99.90
46378;DHT22;32083;47.360;9.650;2024-03-23T10:02:28;9.40;99.90
46378;DHT22;32083;47.360;9.650;2024-03-23T10:04:54;9.40;99.90
46378;DHT22;32083;47.360;9.650;2024-03-23T10:07:21;9.50;99.90
46378;DHT22;32083;47.360;9.650;2024-03-23T10:09:51;9.40;99.90
46378;DHT22;32083;47.360;9.650;2024-03-23T10:12:18;9.50;99.90
46378;DHT22;32083;47.360;9.650;2024-03-23T10:14:45;9.40;99.90
46378;DHT22;32083;47.360;9.650;2024-03-23T10:17:19;9.40;99.90
46378;DHT22;32083;47.360;9.650;2024-03-23T10:19:49;9.30;99.90
46378;DHT22;32083;47.360;9.650;2024-03-23T10:22:23;9.30;99.90
46378;DHT22;32083;47.360;9.650;2024-03-23T10:24:50;9.30;99.90
46378;DHT22;32083;47.360;9.650;2024-03-23T10:27:20;9.30;99.90
46378;DHT22;32083;47.360;9.650;2024-03-23T10:29:50;9.20;99.90
46378;DHT22;32083;47.360;9.650;2024-03-23T10:32:17;9.10;99.90
46378;DHT22;32083;47.360;9.650;2024-03-23T10:34:44;9.00;99.90
46378;DHT22;32083;47.360;9.650;2024-03-23T10:37:10;9.00;99.90
46378;DHT22;32083;47.360;9.650;2024-03-23T10:39:39;9.00;99.90
46378;DHT22;32083;47.360;9.650;2024-03-23T10:42:07;9.00;99.90
46378;DHT22;32083;47.360;9.650;2024-03-23T10:44:33;8.80;99.90
46378;DHT22;32083;47.360;9.650;2024-03-23T10:47:01;8.80;99.90
46378;DHT22;32083;47.360;9.650;2024-03-23T10:49:29;8.60;99.60
46378;DHT22;32083;47.360;9.650;2024-03-23T10:52:03;8.70;99.90
46378;DHT22;32083;47.360;9.650;2024-03-23T10:54:33;8.60;99.90
46378;DHT22;32083;47.360;9.650;2024-03-23T10:57:09;8.30;99.90
46378;DHT22;32083;47.360;9.650;2024-03-23T10:59:37;8.30;99.90
46378;DHT22;32083;47.360;9.650;2024-03-23T11:02:04;8.30;99.90
46378;DHT22;32083;47.360;9.650;2024-03-23T11:04:37;8.40;99.90
46378;DHT22;32083;47.360;9.650;2024-03-23T11:09:53;8.40;99.90
46378;DHT22;32083;47.360;9.650;2024-03-23T11:15:01;8.40;99.90
46378;DHT22;32083;47.360;9.650;2024-03-23T11:17:27;8.40;99.90
46378;DHT22;32083;47.360;9.650;2024-03-23T11:19:55;8.30;99.90
46378;DHT22;32083;47.360;9.650;2024-03-23T11:22:47;8.30;99.90
46378;DHT22;32083;47.360;9.650;2024-03-23T11:27:39;8.30;99.90
46378;DHT22;32083;47.360;9.650;2024-03-23T11:30:17;8.30;99.90
46378;DHT22;32083;47.360;9.650;2024-03-23T11:32:45;8.30;99.90
46378;DHT22;32083;47.360;9.650;2024-03-23T11:35:31;8.40;99.90
46378;DHT22;32083;47.360;9.650;2024-03-23T11:38:17;8.40;99.90
46378;DHT22;32083;47.360;9.650;2024-03-23T11:40:51;8.40;99.90
46378;DHT22;32083;47.360;9.650;2024-03-23T11:43:20;8.40;99.90
46378;DHT22;32083;47.360;9.650;2024-03-23T11:45:52;8.30;99.90
46378;DHT22;32083;47.360;9.650;2024-03-23T11:48:23;8.30;99.90
46378;DHT22;32083;47.360;9.650;2024-03-23T11:50:56;8.30;99.90
46378;DHT22;32083;47.360;9.650;2024-03-23T11:53:25;8.30;99.90
46378;DHT22;32083;47.360;9.650;2024-03-23T11:55:56;8.30;99.90
46378;DHT22;32083;47.360;9.650;2024-03-23T11:58:24;8.40;99.90
46378;DHT22;32083;47.360;9.650;2024-03-23T12:01:02;8.40;99.90
46378;DHT22;32083;47.360;9.650;2024-03-23T12:03:29;8.40;99.90
46378;DHT22;32083;47.360;9.650;2024-03-23T12:05:58;8.40;99.90
46378;DHT22;32083;47.360;9.650;2024-03-23T12:08:34;8.40;99.90
46378;DHT22;32083;47.360;9.650;2024-03-23T12:11:16;8.40;99.90
46378;DHT22;32083;47.360;9.650;2024-03-23T12:13:43;8.40;99.60
46378;DHT22;32083;47.360;9.650;2024-03-23T12:18:39;8.40;99.50
46378;DHT22;32083;47.360;9.650;2024-03-23T12:21:06;8.40;99.50
46378;DHT22;32083;47.360;9.650;2024-03-23T12:23:33;8.40;98.30
46378;DHT22;32083;47.360;9.650;2024-03-23T12:25:59;8.50;98.90
46378;DHT22;32083;47.360;9.650;2024-03-23T12:28:25;8.50;99.00
46378;DHT22;32083;47.360;9.650;2024-03-23T12:30:51;8.50;99.20
46378;DHT22;32083;47.360;9.650;2024-03-23T12:33:21;8.50;99.10
46378;DHT22;32083;47.360;9.650;2024-03-23T12:35:51;8.60;99.50
46378;DHT22;32083;47.360;9.650;2024-03-23T12:38:17;8.60;99.90
46378;DHT22;32083;47.360;9.650;2024-03-23T12:40:47;8.60;97.10
46378;DHT22;32083;47.360;9.650;2024-03-23T12:43:16;8.60;98.70
46378;DHT22;32083;47.360;9.650;2024-03-23T12:45:49;8.70;99.00
46378;DHT22;32083;47.360;9.650;2024-03-23T12:48:18;8.70;98.90
46378;DHT22;32083;47.360;9.650;2024-03-23T12:50:44;8.70;99.90
46378;DHT22;32083;47.360;9.650;2024-03-23T12:53:10;8.70;98.80
46378;DHT22;32083;47.360;9.650;2024-03-23T12:55:36;8.90;99.70
46378;DHT22;32083;47.360;9.650;2024-03-23T12:58:02;9.00;99.80
46378;DHT22;32083;47.360;9.650;2024-03-23T13:00:29;9.00;99.10
46378;DHT22;32083;47.360;9.650;2024-03-23T13:02:55;9.10;99.60
46378;DHT22;32083;47.360;9.650;2024-03-23T13:05:21;9.10;99.50
46378;DHT22;32083;47.360;9.650;2024-03-23T13:07:47;9.20;99.90
46378;DHT22;32083;47.360;9.650;2024-03-23T13:10:13;9.20;99.70
46378;DHT22;32083;47.360;9.650;2024-03-23T13:12:40;9.30;99.50
46378;DHT22;32083;47.360;9.650;2024-03-23T13:15:08;9.40;97.90
46378;DHT22;32083;47.360;9.650;2024-03-23T13:17:34;9.50;98.20
46378;DHT22;32083;47.360;9.650;2024-03-23T13:20:00;9.60;98.90
46378;DHT22;32083;47.360;9.650;2024-03-23T13:22:26;9.60;98.50
46378;DHT22;32083;47.360;9.650;2024-03-23T13:24:52;9.70;97.20
46378;DHT22;32083;47.360;9.650;2024-03-23T13:27:18;9.70;96.80
46378;DHT22;32083;47.360;9.650;2024-03-23T13:29:45;9.70;96.80
